createdAt,value
2022-08-21T00:00:35.730Z,99.60
2022-08-21T00:03:07.741Z,99.30
2022-08-21T00:05:38.196Z,99.35
2022-08-21T00:08:06.474Z,98.63
2022-08-21T00:10:34.254Z,98.32
2022-08-21T00:13:02.194Z,97.85
2022-08-21T00:15:32.226Z,98.06
2022-08-21T00:17:59.909Z,97.31
2022-08-21T00:20:29.147Z,97.06
2022-08-21T00:22:57.543Z,97.26
2022-08-21T00:25:26.319Z,97.26
2022-08-21T00:27:54.353Z,97.71
2022-08-21T00:30:24.145Z,97.32
2022-08-21T00:32:52.897Z,97.45
2022-08-21T00:35:23.170Z,97.33
2022-08-21T00:37:52.500Z,97.25
2022-08-21T00:40:23.853Z,96.92
2022-08-21T00:42:53.359Z,96.50
2022-08-21T00:45:21.872Z,97.31
2022-08-21T00:47:49.528Z,97.17
2022-08-21T00:50:22.060Z,96.78
2022-08-21T00:52:53.104Z,96.81
2022-08-21T00:55:22.282Z,96.18
2022-08-21T00:57:53.354Z,95.52
2022-08-21T01:00:27.572Z,95.63
2022-08-21T01:02:55.168Z,96.05
2022-08-21T01:05:23.230Z,96.45
2022-08-21T01:07:50.897Z,96.65
2022-08-21T01:10:24.405Z,96.95
2022-08-21T01:12:53.537Z,99.02
2022-08-21T01:15:22.009Z,98.30
2022-08-21T01:17:49.924Z,97.76
2022-08-21T01:20:18.335Z,98.65
2022-08-21T01:22:47.254Z,98.13
2022-08-21T01:25:17.018Z,100.00
2022-08-21T01:27:45.281Z,99.41
2022-08-21T01:30:16.500Z,97.73
2022-08-21T01:32:44.411Z,96.51
2022-08-21T01:35:12.764Z,96.01
2022-08-21T01:37:40.917Z,95.96
2022-08-21T01:40:11.767Z,95.76
2022-08-21T01:42:40.323Z,97.06
2022-08-21T01:45:09.029Z,97.42
2022-08-21T01:47:36.678Z,98.98
2022-08-21T01:50:06.050Z,100.00
2022-08-21T01:52:33.622Z,100.00
2022-08-21T01:55:01.229Z,100.00
2022-08-21T01:57:30.120Z,100.00
2022-08-21T01:59:57.706Z,100.00
2022-08-21T02:02:25.411Z,100.00
2022-08-21T02:04:55.568Z,99.87
2022-08-21T02:07:23.198Z,99.86
2022-08-21T02:13:29.960Z,99.37
2022-08-21T02:15:58.198Z,98.68
2022-08-21T02:18:25.876Z,100.00
2022-08-21T02:20:55.895Z,100.00
2022-08-21T02:23:27.408Z,100.00
2022-08-21T02:25:55.410Z,100.00
2022-08-21T02:28:23.401Z,100.00
2022-08-21T02:30:56.413Z,100.00
2022-08-21T02:33:25.114Z,100.00
2022-08-21T02:35:52.920Z,100.00
2022-08-21T02:38:22.913Z,100.00
2022-08-21T02:40:52.177Z,100.00
2022-08-21T02:43:20.143Z,100.00
2022-08-21T02:45:50.963Z,100.00
2022-08-21T02:48:22.234Z,100.00
2022-08-21T02:50:53.945Z,100.00
2022-08-21T02:53:21.578Z,100.00
2022-08-21T02:55:50.774Z,100.00
2022-08-21T02:58:20.411Z,100.00
2022-08-21T03:00:48.371Z,100.00
2022-08-21T03:03:18.269Z,100.00
2022-08-21T03:05:47.162Z,100.00
2022-08-21T03:08:16.296Z,100.00
2022-08-21T03:10:46.301Z,100.00
2022-08-21T03:13:15.039Z,100.00
2022-08-21T03:15:44.441Z,100.00
2022-08-21T03:18:13.810Z,100.00
2022-08-21T03:20:42.624Z,100.00
2022-08-21T03:23:13.288Z,99.86
2022-08-21T03:25:42.540Z,99.38
2022-08-21T03:28:13.759Z,100.00
2022-08-21T03:30:42.743Z,100.00
2022-08-21T03:33:13.038Z,100.00
2022-08-21T03:35:47.622Z,100.00
2022-08-21T03:38:16.712Z,100.00
2022-08-21T03:40:45.092Z,100.00
2022-08-21T03:43:13.042Z,100.00
2022-08-21T03:45:41.914Z,100.00
2022-08-21T03:48:10.941Z,100.00
2022-08-21T03:50:43.948Z,100.00
2022-08-21T03:53:16.774Z,99.80
2022-08-21T03:55:47.521Z,100.00
2022-08-21T03:58:16.508Z,100.00
2022-08-21T04:00:46.479Z,100.00
2022-08-21T04:03:14.314Z,100.00
2022-08-21T04:05:42.016Z,99.53
2022-08-21T04:08:09.957Z,100.00
2022-08-21T04:10:40.234Z,99.27
2022-08-21T04:13:10.129Z,98.28
2022-08-21T04:15:37.747Z,97.35
2022-08-21T04:18:06.356Z,97.28
2022-08-21T04:20:34.014Z,96.29
2022-08-21T04:23:01.526Z,96.64
2022-08-21T04:25:29.671Z,97.20
2022-08-21T04:27:58.119Z,97.45
2022-08-21T04:30:28.736Z,96.94
2022-08-21T04:32:58.299Z,96.89
2022-08-21T04:35:28.069Z,96.10
2022-08-21T04:37:55.806Z,95.77
2022-08-21T04:40:25.013Z,95.46
2022-08-21T04:42:55.123Z,95.24
2022-08-21T04:45:24.462Z,94.56
2022-08-21T04:47:54.890Z,94.94
2022-08-21T04:50:24.957Z,95.54
2022-08-21T04:53:04.945Z,96.13
2022-08-21T04:55:32.611Z,95.72
2022-08-21T04:58:00.808Z,96.27
2022-08-21T05:00:28.431Z,95.10
2022-08-21T05:03:00.002Z,93.75
2022-08-21T05:05:29.865Z,94.53
2022-08-21T05:07:58.609Z,94.74
2022-08-21T05:10:26.616Z,95.09
2022-08-21T05:12:57.776Z,94.73
2022-08-21T05:15:25.947Z,95.96
2022-08-21T05:18:00.481Z,96.58
2022-08-21T05:20:30.144Z,95.96
2022-08-21T05:22:58.529Z,95.85
2022-08-21T05:25:28.223Z,95.32
2022-08-21T05:27:55.922Z,94.67
2022-08-21T05:30:25.754Z,96.18
2022-08-21T05:32:58.656Z,95.51
2022-08-21T05:35:26.761Z,95.38
2022-08-21T05:37:56.309Z,95.19
2022-08-21T05:40:24.789Z,94.89
2022-08-21T05:42:54.482Z,94.72
2022-08-21T05:45:42.025Z,94.33
2022-08-21T05:48:12.255Z,93.65
2022-08-21T05:50:39.940Z,92.26
2022-08-21T05:53:08.919Z,92.13
2022-08-21T05:55:40.295Z,91.26
2022-08-21T05:58:12.173Z,90.29
2022-08-21T06:00:40.314Z,88.84
2022-08-21T06:03:12.998Z,89.55
2022-08-21T06:05:40.526Z,89.03
2022-08-21T06:08:09.636Z,87.91
2022-08-21T06:10:37.297Z,86.33
2022-08-21T06:13:05.677Z,86.81
2022-08-21T06:15:33.266Z,86.45
2022-08-21T06:18:00.821Z,85.88
2022-08-21T06:20:29.145Z,85.34
2022-08-21T06:22:56.771Z,83.40
2022-08-21T06:25:26.038Z,83.55
2022-08-21T06:27:53.644Z,82.66
2022-08-21T06:30:21.698Z,82.38
2022-08-21T06:32:49.247Z,82.25
2022-08-21T06:35:16.778Z,80.75
2022-08-21T06:37:44.391Z,78.77
2022-08-21T06:40:13.003Z,79.20
2022-08-21T06:42:42.756Z,77.24
2022-08-21T06:45:11.499Z,76.50
2022-08-21T06:47:39.207Z,78.20
2022-08-21T06:50:08.609Z,75.99
2022-08-21T06:52:36.389Z,71.07
2022-08-21T06:55:05.071Z,71.28
2022-08-21T06:57:32.652Z,67.14
2022-08-21T07:00:01.601Z,64.04
2022-08-21T07:02:29.233Z,63.25
2022-08-21T07:04:56.922Z,61.51
2022-08-21T07:07:24.501Z,59.47
2022-08-21T07:09:52.153Z,58.30
2022-08-21T07:12:19.714Z,59.46
2022-08-21T07:14:50.826Z,57.01
2022-08-21T07:17:19.791Z,54.42
2022-08-21T07:19:47.745Z,54.89
2022-08-21T07:22:16.697Z,54.87
2022-08-21T07:24:44.353Z,52.56
2022-08-21T07:27:11.877Z,50.10
2022-08-21T07:29:39.488Z,51.48
2022-08-21T07:32:07.790Z,48.31
2022-08-21T07:34:36.709Z,51.72
2022-08-21T07:37:06.095Z,51.08
2022-08-21T07:39:34.069Z,49.49
2022-08-21T07:42:06.296Z,46.93
2022-08-21T07:44:36.094Z,48.20
2022-08-21T07:47:03.762Z,46.78
2022-08-21T07:49:31.302Z,50.91
2022-08-21T07:52:00.670Z,47.66
2022-08-21T07:54:33.890Z,48.02
2022-08-21T07:57:02.769Z,50.62
2022-08-21T07:59:30.764Z,48.60
2022-08-21T08:01:58.414Z,48.33
2022-08-21T08:04:29.335Z,47.85
2022-08-21T08:06:56.995Z,50.37
2022-08-21T08:09:25.903Z,48.39
2022-08-21T08:11:53.460Z,48.07
2022-08-21T08:14:31.271Z,45.46
2022-08-21T08:16:59.533Z,44.34
2022-08-21T08:19:27.173Z,46.61
2022-08-21T08:21:54.661Z,44.63
2022-08-21T08:24:22.289Z,49.44
2022-08-21T08:26:53.647Z,48.02
2022-08-21T08:29:22.205Z,44.13
2022-08-21T08:31:52.260Z,49.42
2022-08-21T08:34:23.524Z,46.99
2022-08-21T08:36:53.315Z,46.52
2022-08-21T08:39:27.049Z,46.81
2022-08-21T08:42:03.749Z,46.28
2022-08-21T08:44:55.177Z,45.62
2022-08-21T08:47:23.306Z,45.38
2022-08-21T08:49:57.638Z,46.07
2022-08-21T08:52:29.734Z,45.34
2022-08-21T08:55:03.257Z,44.88
2022-08-21T08:57:34.051Z,46.63
2022-08-21T09:00:03.613Z,43.23
2022-08-21T09:02:31.218Z,47.53
2022-08-21T09:04:59.015Z,44.06
2022-08-21T09:07:33.789Z,46.66
2022-08-21T09:10:09.286Z,46.22
2022-08-21T09:12:48.168Z,43.61
2022-08-21T09:15:24.370Z,49.18
2022-08-21T09:18:12.494Z,45.20
2022-08-21T09:20:43.290Z,51.72
2022-08-21T09:23:20.494Z,52.92
2022-08-21T09:25:57.665Z,49.50
2022-08-21T09:28:27.427Z,47.16
2022-08-21T09:30:59.150Z,46.84
2022-08-21T09:33:26.943Z,48.59
2022-08-21T09:35:56.372Z,46.03
2022-08-21T09:38:30.567Z,46.26
2022-08-21T09:41:01.022Z,48.62
2022-08-21T09:43:30.499Z,45.43
2022-08-21T09:46:07.511Z,45.36
2022-08-21T09:48:48.563Z,46.74
2022-08-21T09:51:19.220Z,50.56
2022-08-21T09:53:49.424Z,45.50
2022-08-21T09:56:45.961Z,48.55
2022-08-21T09:59:21.293Z,48.04
2022-08-21T10:01:51.650Z,49.56
2022-08-21T10:04:23.481Z,48.97
2022-08-21T10:06:51.322Z,47.24
2022-08-21T10:09:21.759Z,47.19
2022-08-21T10:11:56.975Z,47.73
2022-08-21T10:14:36.953Z,47.55
2022-08-21T10:17:13.193Z,48.12
2022-08-21T10:19:44.859Z,45.87
2022-08-21T10:22:30.609Z,46.35
2022-08-21T10:25:03.704Z,50.01
2022-08-21T10:27:40.805Z,47.79
2022-08-21T10:30:13.712Z,45.38
2022-08-21T10:32:53.183Z,46.71
2022-08-21T10:35:24.725Z,49.19
2022-08-21T10:38:07.294Z,47.07
2022-08-21T10:40:40.970Z,51.83
2022-08-21T10:43:18.930Z,50.70
2022-08-21T10:45:57.583Z,49.25
2022-08-21T10:48:30.589Z,48.62
2022-08-21T10:51:03.876Z,47.49
2022-08-21T10:53:43.208Z,48.12
2022-08-21T10:56:16.800Z,46.97
2022-08-21T10:58:48.717Z,44.88
2022-08-21T11:01:23.244Z,48.56
2022-08-21T11:03:54.194Z,47.47
2022-08-21T11:06:26.121Z,45.39
2022-08-21T11:08:56.006Z,45.77
2022-08-21T11:11:29.751Z,46.16
2022-08-21T11:14:10.595Z,44.38
2022-08-21T11:16:44.789Z,43.76
2022-08-21T11:19:16.873Z,43.74
2022-08-21T11:21:47.340Z,43.79
2022-08-21T11:24:21.900Z,42.09
2022-08-21T11:26:53.625Z,41.99
2022-08-21T11:29:24.737Z,43.36
2022-08-21T11:32:14.581Z,48.90
2022-08-21T11:34:49.864Z,44.07
2022-08-21T11:37:23.905Z,45.17
2022-08-21T11:39:56.210Z,43.28
2022-08-21T11:42:28.388Z,45.22
2022-08-21T11:44:58.938Z,42.17
2022-08-21T11:47:52.063Z,43.90
2022-08-21T11:50:35.824Z,43.38
2022-08-21T11:53:11.025Z,43.12
2022-08-21T11:55:41.655Z,39.99
2022-08-21T11:58:12.187Z,40.86
2022-08-21T12:00:43.463Z,41.64
2022-08-21T12:03:15.390Z,42.01
2022-08-21T12:05:45.249Z,43.18
2022-08-21T12:08:16.630Z,41.07
2022-08-21T12:10:49.383Z,40.19
2022-08-21T12:13:42.152Z,43.49
2022-08-21T12:16:13.372Z,42.90
2022-08-21T12:18:42.971Z,39.14
2022-08-21T12:21:23.525Z,41.85
2022-08-21T12:24:02.344Z,40.91
2022-08-21T12:26:31.911Z,40.76
2022-08-21T12:29:16.459Z,41.45
2022-08-21T12:32:06.837Z,37.88
2022-08-21T12:34:38.139Z,39.40
2022-08-21T12:37:09.334Z,38.64
2022-08-21T12:39:40.683Z,39.86
2022-08-21T12:42:15.258Z,38.71
2022-08-21T12:44:45.752Z,40.48
2022-08-21T12:47:19.601Z,39.08
2022-08-21T12:49:55.550Z,40.49
2022-08-21T12:52:25.463Z,39.98
2022-08-21T12:54:53.157Z,38.55
2022-08-21T12:57:23.153Z,38.01
2022-08-21T12:59:55.875Z,36.31
2022-08-21T13:02:26.126Z,37.81
2022-08-21T13:04:57.658Z,38.17
2022-08-21T13:07:29.616Z,41.75
2022-08-21T13:10:00.201Z,37.57
2022-08-21T13:12:29.620Z,39.40
2022-08-21T13:15:03.218Z,38.12
2022-08-21T13:17:33.574Z,37.12
2022-08-21T13:20:05.160Z,38.88
2022-08-21T13:22:33.813Z,36.58
2022-08-21T13:25:06.935Z,35.67
2022-08-21T13:27:35.946Z,37.96
2022-08-21T13:30:07.947Z,36.32
2022-08-21T13:32:39.001Z,37.11
2022-08-21T13:35:13.941Z,37.00
2022-08-21T13:37:42.469Z,37.91
2022-08-21T13:40:14.314Z,35.77
2022-08-21T13:42:43.732Z,35.34
2022-08-21T13:45:16.125Z,38.05
2022-08-21T13:47:44.065Z,36.80
2022-08-21T13:50:14.094Z,37.03
2022-08-21T13:52:50.522Z,34.24
2022-08-21T13:55:18.372Z,35.14
2022-08-21T13:57:45.994Z,36.88
2022-08-21T14:00:17.643Z,34.35
2022-08-21T14:02:47.978Z,35.31
2022-08-21T14:05:22.037Z,36.00
2022-08-21T14:07:52.295Z,36.79
2022-08-21T14:10:22.853Z,37.26
2022-08-21T14:12:53.142Z,38.46
2022-08-21T14:15:25.849Z,38.12
2022-08-21T14:17:53.609Z,37.32
2022-08-21T14:20:31.958Z,39.88
2022-08-21T14:22:59.759Z,38.18
2022-08-21T14:25:33.567Z,38.62
2022-08-21T14:28:19.466Z,38.08
2022-08-21T14:30:48.657Z,38.95
2022-08-21T14:33:25.641Z,39.47
2022-08-21T14:35:54.605Z,42.46
2022-08-21T14:38:26.328Z,40.10
2022-08-21T14:40:57.638Z,37.98
2022-08-21T14:43:25.529Z,42.24
2022-08-21T14:45:53.278Z,40.54
2022-08-21T14:48:20.911Z,41.16
2022-08-21T14:50:48.416Z,40.55
2022-08-21T14:53:17.659Z,39.97
2022-08-21T14:56:02.897Z,41.64
2022-08-21T14:58:30.690Z,40.40
2022-08-21T15:01:04.383Z,43.05
2022-08-21T15:03:32.680Z,41.35
2022-08-21T15:06:00.942Z,40.56
2022-08-21T15:08:30.065Z,40.22
2022-08-21T15:11:11.864Z,41.29
2022-08-21T15:13:41.669Z,40.07
2022-08-21T15:16:11.077Z,38.46
2022-08-21T15:18:38.979Z,39.69
2022-08-21T15:21:06.837Z,41.30
2022-08-21T15:23:36.151Z,37.98
2022-08-21T15:26:07.613Z,40.02
2022-08-21T15:28:37.701Z,38.27
2022-08-21T15:31:06.517Z,39.12
2022-08-21T15:33:34.177Z,39.13
2022-08-21T15:36:01.706Z,39.80
2022-08-21T15:38:29.258Z,41.15
2022-08-21T15:40:58.104Z,41.66
2022-08-21T15:43:30.099Z,41.55
2022-08-21T15:46:01.316Z,39.30
2022-08-21T15:48:28.964Z,39.15
2022-08-21T15:50:56.665Z,39.08
2022-08-21T15:53:24.427Z,38.01
2022-08-21T15:55:52.087Z,37.71
2022-08-21T15:58:21.643Z,36.35
2022-08-21T16:00:49.205Z,35.92
2022-08-21T16:03:22.455Z,36.61
2022-08-21T16:05:53.089Z,36.77
2022-08-21T16:08:20.910Z,38.12
2022-08-21T16:10:49.012Z,38.78
2022-08-21T16:13:19.932Z,41.58
2022-08-21T16:15:49.300Z,40.21
2022-08-21T16:18:16.869Z,40.87
2022-08-21T16:20:44.429Z,41.92
2022-08-21T16:23:11.980Z,42.56
2022-08-21T16:25:40.602Z,42.97
2022-08-21T16:28:12.159Z,44.34
2022-08-21T16:30:42.079Z,43.64
2022-08-21T16:33:17.020Z,44.38
2022-08-21T16:35:44.545Z,45.54
2022-08-21T16:38:12.351Z,45.35
2022-08-21T16:40:40.045Z,47.41
2022-08-21T16:43:07.745Z,45.95
2022-08-21T16:45:35.349Z,46.58
2022-08-21T16:48:04.382Z,46.28
2022-08-21T16:50:33.345Z,46.97
2022-08-21T16:53:00.962Z,47.50
2022-08-21T16:55:28.761Z,48.72
2022-08-21T16:57:56.382Z,50.08
2022-08-21T17:00:24.148Z,49.57
2022-08-21T17:02:54.874Z,49.43
2022-08-21T17:05:22.567Z,49.60
2022-08-21T17:07:51.629Z,47.15
2022-08-21T17:10:20.031Z,47.92
2022-08-21T17:12:55.609Z,48.88
2022-08-21T17:15:25.399Z,50.60
2022-08-21T17:17:53.569Z,53.63
2022-08-21T17:20:21.816Z,52.22
2022-08-21T17:22:51.023Z,53.71
2022-08-21T17:25:18.614Z,53.62
2022-08-21T17:27:47.772Z,53.49
2022-08-21T17:30:16.343Z,52.16
2022-08-21T17:32:44.534Z,52.95
2022-08-21T17:35:12.909Z,53.74
2022-08-21T17:37:40.537Z,52.39
2022-08-21T17:40:14.291Z,53.48
2022-08-21T17:42:42.939Z,54.84
2022-08-21T17:45:12.690Z,55.76
2022-08-21T17:47:40.393Z,55.60
2022-08-21T17:50:09.694Z,54.66
2022-08-21T17:52:37.305Z,54.61
2022-08-21T17:55:05.701Z,56.89
2022-08-21T17:57:36.141Z,56.99
2022-08-21T18:00:06.735Z,57.27
2022-08-21T18:02:39.631Z,57.34
2022-08-21T18:05:09.081Z,58.20
2022-08-21T18:07:36.638Z,58.66
2022-08-21T18:10:07.246Z,58.82
2022-08-21T18:12:36.247Z,59.60
2022-08-21T18:15:05.090Z,59.98
2022-08-21T18:17:33.689Z,60.17
2022-08-21T18:20:01.918Z,60.84
2022-08-21T18:22:29.575Z,61.19
2022-08-21T18:24:57.139Z,61.64
2022-08-21T18:27:29.496Z,63.29
2022-08-21T18:30:00.099Z,64.42
2022-08-21T18:32:31.479Z,65.81
2022-08-21T18:35:00.753Z,66.32
2022-08-21T18:37:28.427Z,67.78
2022-08-21T18:39:56.005Z,67.59
2022-08-21T18:42:28.598Z,68.04
2022-08-21T18:45:01.601Z,69.77
2022-08-21T18:47:33.481Z,69.06
2022-08-21T18:50:01.371Z,70.31
2022-08-21T18:52:29.157Z,70.98
2022-08-21T18:54:56.772Z,71.80
2022-08-21T18:57:26.920Z,72.92
2022-08-21T18:59:54.681Z,73.01
2022-08-21T19:02:24.185Z,73.66
2022-08-21T19:04:51.822Z,73.49
2022-08-21T19:07:19.842Z,74.43
2022-08-21T19:10:07.593Z,74.89
2022-08-21T19:12:35.475Z,74.05
2022-08-21T19:15:03.503Z,74.30
2022-08-21T19:17:32.558Z,74.84
2022-08-21T19:20:05.742Z,75.97
2022-08-21T19:22:33.335Z,75.83
2022-08-21T19:25:00.981Z,76.90
2022-08-21T19:27:29.798Z,76.99
2022-08-21T19:29:57.561Z,77.43
2022-08-21T19:32:25.290Z,78.18
2022-08-21T19:34:55.075Z,78.76
2022-08-21T19:37:25.852Z,78.92
2022-08-21T19:39:53.972Z,78.54
2022-08-21T19:42:22.412Z,79.12
2022-08-21T19:44:57.665Z,79.35
2022-08-21T19:50:17.915Z,79.28
2022-08-21T19:52:51.581Z,79.18
2022-08-21T19:55:19.534Z,79.93
2022-08-21T19:57:47.225Z,79.79
2022-08-21T20:00:17.121Z,79.89
2022-08-21T20:02:48.039Z,80.03
2022-08-21T20:05:18.121Z,79.81
2022-08-21T20:07:46.146Z,80.29
2022-08-21T20:10:13.961Z,80.66
2022-08-21T20:12:41.814Z,79.67
2022-08-21T20:15:09.837Z,80.67
2022-08-21T20:17:38.672Z,81.09
2022-08-21T20:20:07.283Z,80.95
2022-08-21T20:22:36.351Z,81.64
2022-08-21T20:25:04.708Z,81.44
2022-08-21T20:27:36.467Z,82.15
2022-08-21T20:30:09.769Z,82.24
2022-08-21T20:32:37.323Z,82.76
2022-08-21T20:35:06.248Z,82.04
2022-08-21T20:37:41.765Z,82.97
2022-08-21T20:40:11.846Z,82.33
2022-08-21T20:42:40.099Z,82.83
2022-08-21T20:45:09.535Z,83.79
2022-08-21T20:47:38.254Z,83.72
2022-08-21T20:50:13.564Z,83.62
2022-08-21T20:52:43.093Z,84.00
2022-08-21T20:55:12.158Z,83.67
2022-08-21T20:57:50.884Z,85.22
2022-08-21T21:00:22.549Z,85.59
2022-08-21T21:02:53.701Z,85.79
2022-08-21T21:05:23.567Z,86.36
2022-08-21T21:08:00.567Z,85.33
2022-08-21T21:10:32.691Z,86.45
2022-08-21T21:13:04.777Z,86.64
2022-08-21T21:15:35.444Z,86.48
2022-08-21T21:18:10.513Z,85.77
2022-08-21T21:20:48.168Z,86.02
2022-08-21T21:23:22.398Z,86.39
2022-08-21T21:25:55.344Z,85.82
2022-08-21T21:28:30.500Z,84.97
2022-08-21T21:30:59.689Z,84.93
2022-08-21T21:33:31.528Z,85.26
2022-08-21T21:36:00.948Z,84.99
2022-08-21T21:38:35.330Z,86.74
2022-08-21T21:41:12.698Z,87.36
2022-08-21T21:43:51.961Z,86.99
2022-08-21T21:46:30.885Z,86.13
2022-08-21T21:49:08.105Z,85.71
2022-08-21T21:52:00.325Z,85.24
2022-08-21T21:54:51.971Z,84.70
2022-08-21T21:57:31.115Z,85.87
2022-08-21T22:00:01.768Z,85.42
2022-08-21T22:02:50.449Z,86.48
2022-08-21T22:05:36.462Z,86.91
2022-08-21T22:08:11.230Z,87.78
2022-08-21T22:10:45.669Z,87.12
2022-08-21T22:13:26.277Z,87.42
2022-08-21T22:15:57.054Z,87.69
2022-08-21T22:18:28.196Z,88.96
2022-08-21T22:20:58.390Z,89.12
2022-08-21T22:23:28.529Z,89.60
2022-08-21T22:26:08.797Z,90.06
2022-08-21T22:28:39.213Z,89.64
2022-08-21T22:31:18.142Z,89.82
2022-08-21T22:34:05.861Z,89.33
2022-08-21T22:36:36.456Z,89.18
2022-08-21T22:39:06.298Z,89.25
2022-08-21T22:41:39.335Z,90.18
2022-08-21T22:44:12.069Z,90.54
2022-08-21T22:46:45.751Z,90.59
2022-08-21T22:49:22.447Z,89.60
2022-08-21T22:51:57.421Z,90.16
2022-08-21T22:54:31.806Z,90.22
2022-08-21T22:57:03.133Z,89.99
2022-08-21T22:59:34.871Z,89.73
2022-08-21T23:02:07.230Z,90.80
2022-08-21T23:04:48.309Z,90.67
2022-08-21T23:07:33.158Z,90.89
2022-08-21T23:10:00.794Z,91.14
2022-08-21T23:12:35.662Z,90.92
2022-08-21T23:15:06.856Z,91.06
2022-08-21T23:17:39.698Z,92.10
2022-08-21T23:20:12.770Z,93.29
2022-08-21T23:22:52.388Z,93.20
2022-08-21T23:25:36.303Z,94.00
2022-08-21T23:28:10.157Z,93.68
2022-08-21T23:30:42.935Z,93.24
2022-08-21T23:33:22.805Z,92.82
2022-08-21T23:36:10.818Z,92.52
2022-08-21T23:38:48.953Z,92.24
2022-08-21T23:41:33.969Z,91.55
2022-08-21T23:44:13.633Z,90.79
2022-08-21T23:47:00.360Z,91.80
2022-08-21T23:49:37.613Z,92.03
2022-08-21T23:52:18.870Z,92.13
2022-08-21T23:54:54.525Z,92.26
2022-08-21T23:57:33.178Z,92.36
